sensor_id;sensor_type;location;lat;lon;timestamp;P1;durP1;ratioP1;P2;durP2;ratioP2
59062;SDS011;44851;45.648;9.004;2023-05-02T00:01:27;9.50;;;8.70;;
59062;SDS011;44851;45.648;9.004;2023-05-02T00:03:52;9.33;;;8.53;;
59062;SDS011;44851;45.648;9.004;2023-05-02T00:06:18;8.30;;;7.60;;
59062;SDS011;44851;45.648;9.004;2023-05-02T00:08:43;8.40;;;7.70;;
59062;SDS011;44851;45.648;9.004;2023-05-02T00:11:08;8.57;;;7.77;;
59062;SDS011;44851;45.648;9.004;2023-05-02T00:13:34;7.83;;;7.13;;
59062;SDS011;44851;45.648;9.004;2023-05-02T00:15:59;7.40;;;6.77;;
59062;SDS011;44851;45.648;9.004;2023-05-02T00:18:25;8.30;;;7.60;;
59062;SDS011;44851;45.648;9.004;2023-05-02T00:20:51;7.47;;;6.87;;
59062;SDS011;44851;45.648;9.004;2023-05-02T00:23:16;7.10;;;6.40;;
59062;SDS011;44851;45.648;9.004;2023-05-02T00:25:44;6.90;;;6.30;;
59062;SDS011;44851;45.648;9.004;2023-05-02T00:28:10;7.20;;;6.60;;
59062;SDS011;44851;45.648;9.004;2023-05-02T00:30:36;7.33;;;6.67;;
59062;SDS011;44851;45.648;9.004;2023-05-02T00:33:06;7.07;;;6.50;;
59062;SDS011;44851;45.648;9.004;2023-05-02T00:35:32;7.70;;;7.00;;
59062;SDS011;44851;45.648;9.004;2023-05-02T00:37:58;7.57;;;6.93;;
59062;SDS011;44851;45.648;9.004;2023-05-02T00:40:23;6.83;;;6.23;;
59062;SDS011;44851;45.648;9.004;2023-05-02T00:42:49;7.27;;;6.67;;
59062;SDS011;44851;45.648;9.004;2023-05-02T00:45:14;7.27;;;6.57;;
59062;SDS011;44851;45.648;9.004;2023-05-02T00:47:40;6.90;;;6.20;;
59062;SDS011;44851;45.648;9.004;2023-05-02T00:50:05;7.00;;;6.30;;
59062;SDS011;44851;45.648;9.004;2023-05-02T00:52:31;7.43;;;6.73;;
59062;SDS011;44851;45.648;9.004;2023-05-02T00:54:57;6.33;;;5.83;;
59062;SDS011;44851;45.648;9.004;2023-05-02T00:57:23;5.97;;;5.37;;
59062;SDS011;44851;45.648;9.004;2023-05-02T00:59:49;7.70;;;6.90;;
59062;SDS011;44851;45.648;9.004;2023-05-02T01:02:29;6.63;;;6.13;;
59062;SDS011;44851;45.648;9.004;2023-05-02T01:05:16;6.90;;;6.30;;
59062;SDS011;44851;45.648;9.004;2023-05-02T01:13:08;6.67;;;6.17;;
59062;SDS011;44851;45.648;9.004;2023-05-02T01:15:38;6.73;;;6.13;;
59062;SDS011;44851;45.648;9.004;2023-05-02T01:18:08;6.73;;;6.13;;
59062;SDS011;44851;45.648;9.004;2023-05-02T01:20:36;7.13;;;6.47;;
59062;SDS011;44851;45.648;9.004;2023-05-02T01:23:09;7.77;;;7.17;;
59062;SDS011;44851;45.648;9.004;2023-05-02T01:31:13;7.77;;;7.07;;
59062;SDS011;44851;45.648;9.004;2023-05-02T01:33:40;7.73;;;7.10;;
59062;SDS011;44851;45.648;9.004;2023-05-02T01:36:08;7.57;;;6.90;;
59062;SDS011;44851;45.648;9.004;2023-05-02T01:38:36;7.33;;;6.70;;
59062;SDS011;44851;45.648;9.004;2023-05-02T01:41:03;7.67;;;6.97;;
59062;SDS011;44851;45.648;9.004;2023-05-02T01:43:31;6.70;;;6.20;;
59062;SDS011;44851;45.648;9.004;2023-05-02T01:45:59;7.10;;;6.50;;
59062;SDS011;44851;45.648;9.004;2023-05-02T01:48:28;6.70;;;6.17;;
59062;SDS011;44851;45.648;9.004;2023-05-02T01:50:54;6.60;;;6.10;;
59062;SDS011;44851;45.648;9.004;2023-05-02T01:53:21;7.67;;;6.73;;
59062;SDS011;44851;45.648;9.004;2023-05-02T01:55:50;7.17;;;6.57;;
59062;SDS011;44851;45.648;9.004;2023-05-02T01:58:19;6.20;;;5.70;;
59062;SDS011;44851;45.648;9.004;2023-05-02T02:00:45;7.20;;;6.60;;
59062;SDS011;44851;45.648;9.004;2023-05-02T02:03:11;7.37;;;6.77;;
59062;SDS011;44851;45.648;9.004;2023-05-02T02:05:38;7.37;;;6.77;;
59062;SDS011;44851;45.648;9.004;2023-05-02T02:08:05;6.90;;;6.23;;
59062;SDS011;44851;45.648;9.004;2023-05-02T02:10:34;6.27;;;5.77;;
59062;SDS011;44851;45.648;9.004;2023-05-02T02:13:05;7.33;;;6.63;;
59062;SDS011;44851;45.648;9.004;2023-05-02T02:15:37;6.83;;;6.23;;
59062;SDS011;44851;45.648;9.004;2023-05-02T02:18:24;7.37;;;6.77;;
59062;SDS011;44851;45.648;9.004;2023-05-02T02:20:53;6.70;;;6.13;;
59062;SDS011;44851;45.648;9.004;2023-05-02T02:23:20;8.37;;;7.67;;
59062;SDS011;44851;45.648;9.004;2023-05-02T02:25:50;8.07;;;7.37;;
59062;SDS011;44851;45.648;9.004;2023-05-02T02:28:17;7.67;;;6.97;;
59062;SDS011;44851;45.648;9.004;2023-05-02T02:30:43;8.10;;;7.40;;
59062;SDS011;44851;45.648;9.004;2023-05-02T02:33:08;9.00;;;8.10;;
59062;SDS011;44851;45.648;9.004;2023-05-02T02:35:36;8.17;;;7.47;;
59062;SDS011;44851;45.648;9.004;2023-05-02T02:40:48;8.17;;;7.47;;
59062;SDS011;44851;45.648;9.004;2023-05-02T02:43:30;9.20;;;8.40;;
59062;SDS011;44851;45.648;9.004;2023-05-02T02:48:48;7.83;;;7.23;;
59062;SDS011;44851;45.648;9.004;2023-05-02T02:51:57;8.10;;;7.40;;
59062;SDS011;44851;45.648;9.004;2023-05-02T02:54:36;8.20;;;7.47;;
59062;SDS011;44851;45.648;9.004;2023-05-02T02:57:11;8.73;;;7.93;;
59062;SDS011;44851;45.648;9.004;2023-05-02T02:59:41;8.37;;;7.67;;
59062;SDS011;44851;45.648;9.004;2023-05-02T03:02:16;7.93;;;7.17;;
59062;SDS011;44851;45.648;9.004;2023-05-02T03:04:44;8.67;;;7.97;;
59062;SDS011;44851;45.648;9.004;2023-05-02T03:07:11;8.27;;;7.57;;
59062;SDS011;44851;45.648;9.004;2023-05-02T03:09:40;7.93;;;7.23;;
59062;SDS011;44851;45.648;9.004;2023-05-02T03:12:10;8.13;;;7.53;;
59062;SDS011;44851;45.648;9.004;2023-05-02T03:14:37;8.33;;;7.63;;
59062;SDS011;44851;45.648;9.004;2023-05-02T03:17:03;8.73;;;7.97;;
59062;SDS011;44851;45.648;9.004;2023-05-02T03:19:29;8.97;;;8.13;;
59062;SDS011;44851;45.648;9.004;2023-05-02T03:21:54;8.83;;;8.10;;
59062;SDS011;44851;45.648;9.004;2023-05-02T03:24:20;8.03;;;7.33;;
59062;SDS011;44851;45.648;9.004;2023-05-02T03:26:46;8.70;;;7.90;;
59062;SDS011;44851;45.648;9.004;2023-05-02T03:29:12;8.17;;;7.53;;
59062;SDS011;44851;45.648;9.004;2023-05-02T03:31:38;8.83;;;8.03;;
59062;SDS011;44851;45.648;9.004;2023-05-02T03:34:03;8.63;;;7.83;;
59062;SDS011;44851;45.648;9.004;2023-05-02T03:36:29;8.47;;;7.77;;
59062;SDS011;44851;45.648;9.004;2023-05-02T03:38:54;8.30;;;7.50;;
59062;SDS011;44851;45.648;9.004;2023-05-02T03:41:20;8.13;;;7.43;;
59062;SDS011;44851;45.648;9.004;2023-05-02T03:43:45;9.17;;;8.27;;
59062;SDS011;44851;45.648;9.004;2023-05-02T03:46:11;8.27;;;7.47;;
59062;SDS011;44851;45.648;9.004;2023-05-02T03:48:36;8.57;;;7.77;;
59062;SDS011;44851;45.648;9.004;2023-05-02T03:51:03;8.47;;;7.67;;
59062;SDS011;44851;45.648;9.004;2023-05-02T03:53:29;8.87;;;8.07;;
59062;SDS011;44851;45.648;9.004;2023-05-02T03:55:58;9.20;;;8.40;;
59062;SDS011;44851;45.648;9.004;2023-05-02T03:58:24;8.50;;;7.80;;
59062;SDS011;44851;45.648;9.004;2023-05-02T04:00:49;9.07;;;8.27;;
59062;SDS011;44851;45.648;9.004;2023-05-02T04:03:17;9.67;;;8.80;;
59062;SDS011;44851;45.648;9.004;2023-05-02T04:05:43;9.30;;;8.50;;
59062;SDS011;44851;45.648;9.004;2023-05-02T04:08:09;8.47;;;7.77;;
59062;SDS011;44851;45.648;9.004;2023-05-02T04:10:34;8.90;;;8.20;;
59062;SDS011;44851;45.648;9.004;2023-05-02T04:13:00;9.40;;;8.50;;
59062;SDS011;44851;45.648;9.004;2023-05-02T04:15:27;7.43;;;6.73;;
59062;SDS011;44851;45.648;9.004;2023-05-02T04:17:52;8.17;;;7.47;;
59062;SDS011;44851;45.648;9.004;2023-05-02T04:20:18;7.43;;;6.83;;
59062;SDS011;44851;45.648;9.004;2023-05-02T04:22:44;8.30;;;7.60;;
59062;SDS011;44851;45.648;9.004;2023-05-02T04:25:11;8.47;;;7.77;;
59062;SDS011;44851;45.648;9.004;2023-05-02T04:27:37;8.60;;;7.90;;
59062;SDS011;44851;45.648;9.004;2023-05-02T04:30:03;9.50;;;8.70;;
59062;SDS011;44851;45.648;9.004;2023-05-02T04:32:29;8.67;;;7.77;;
59062;SDS011;44851;45.648;9.004;2023-05-02T04:34:54;9.17;;;8.37;;
59062;SDS011;44851;45.648;9.004;2023-05-02T04:37:20;8.97;;;8.17;;
59062;SDS011;44851;45.648;9.004;2023-05-02T04:39:45;8.57;;;7.80;;
59062;SDS011;44851;45.648;9.004;2023-05-02T04:42:10;8.77;;;8.07;;
59062;SDS011;44851;45.648;9.004;2023-05-02T04:44:36;9.53;;;8.53;;
59062;SDS011;44851;45.648;9.004;2023-05-02T04:47:01;8.73;;;8.03;;
59062;SDS011;44851;45.648;9.004;2023-05-02T04:49:28;8.90;;;8.10;;
59062;SDS011;44851;45.648;9.004;2023-05-02T04:51:54;9.13;;;8.33;;
59062;SDS011;44851;45.648;9.004;2023-05-02T04:54:19;9.17;;;8.33;;
59062;SDS011;44851;45.648;9.004;2023-05-02T04:56:45;9.17;;;8.37;;
59062;SDS011;44851;45.648;9.004;2023-05-02T04:59:10;10.57;;;8.17;;
59062;SDS011;44851;45.648;9.004;2023-05-02T05:01:36;9.27;;;8.43;;
59062;SDS011;44851;45.648;9.004;2023-05-02T05:04:01;9.53;;;8.73;;
59062;SDS011;44851;45.648;9.004;2023-05-02T05:06:27;8.73;;;8.03;;
59062;SDS011;44851;45.648;9.004;2023-05-02T05:08:52;9.20;;;8.40;;
59062;SDS011;44851;45.648;9.004;2023-05-02T05:11:18;8.93;;;8.13;;
59062;SDS011;44851;45.648;9.004;2023-05-02T05:13:43;9.50;;;8.70;;
59062;SDS011;44851;45.648;9.004;2023-05-02T05:16:09;8.37;;;7.67;;
59062;SDS011;44851;45.648;9.004;2023-05-02T05:18:34;8.60;;;7.90;;
59062;SDS011;44851;45.648;9.004;2023-05-02T05:21:07;9.10;;;8.30;;
59062;SDS011;44851;45.648;9.004;2023-05-02T05:23:33;8.33;;;7.63;;
59062;SDS011;44851;45.648;9.004;2023-05-02T05:26:12;9.30;;;8.50;;
59062;SDS011;44851;45.648;9.004;2023-05-02T05:28:42;8.57;;;7.87;;
59062;SDS011;44851;45.648;9.004;2023-05-02T05:31:09;9.43;;;8.53;;
59062;SDS011;44851;45.648;9.004;2023-05-02T05:33:35;9.20;;;8.30;;
59062;SDS011;44851;45.648;9.004;2023-05-02T05:36:03;8.93;;;8.13;;
59062;SDS011;44851;45.648;9.004;2023-05-02T05:38:29;9.07;;;8.27;;
59062;SDS011;44851;45.648;9.004;2023-05-02T05:40:55;9.53;;;8.73;;
59062;SDS011;44851;45.648;9.004;2023-05-02T05:43:20;9.40;;;8.60;;
59062;SDS011;44851;45.648;9.004;2023-05-02T05:45:46;9.73;;;8.83;;
59062;SDS011;44851;45.648;9.004;2023-05-02T05:48:11;8.77;;;8.00;;
59062;SDS011;44851;45.648;9.004;2023-05-02T05:50:36;9.03;;;8.33;;
59062;SDS011;44851;45.648;9.004;2023-05-02T05:53:02;9.10;;;8.30;;
59062;SDS011;44851;45.648;9.004;2023-05-02T05:55:27;9.33;;;8.53;;
59062;SDS011;44851;45.648;9.004;2023-05-02T05:57:53;9.70;;;8.90;;
59062;SDS011;44851;45.648;9.004;2023-05-02T06:00:18;10.03;;;9.13;;
59062;SDS011;44851;45.648;9.004;2023-05-02T06:02:44;10.50;;;9.50;;
59062;SDS011;44851;45.648;9.004;2023-05-02T06:05:09;10.00;;;9.10;;
59062;SDS011;44851;45.648;9.004;2023-05-02T06:07:34;10.57;;;9.57;;
59062;SDS011;44851;45.648;9.004;2023-05-02T06:10:00;10.37;;;9.37;;
59062;SDS011;44851;45.648;9.004;2023-05-02T06:12:25;10.93;;;9.90;;
59062;SDS011;44851;45.648;9.004;2023-05-02T06:14:50;10.70;;;9.80;;
59062;SDS011;44851;45.648;9.004;2023-05-02T06:17:16;10.57;;;9.50;;
59062;SDS011;44851;45.648;9.004;2023-05-02T06:19:42;9.37;;;8.57;;
59062;SDS011;44851;45.648;9.004;2023-05-02T06:22:07;10.67;;;9.77;;
59062;SDS011;44851;45.648;9.004;2023-05-02T06:24:36;10.07;;;9.23;;
59062;SDS011;44851;45.648;9.004;2023-05-02T06:27:01;10.27;;;9.33;;
59062;SDS011;44851;45.648;9.004;2023-05-02T06:29:27;10.63;;;9.73;;
59062;SDS011;44851;45.648;9.004;2023-05-02T06:31:55;10.10;;;9.23;;
59062;SDS011;44851;45.648;9.004;2023-05-02T06:34:21;10.20;;;9.30;;
59062;SDS011;44851;45.648;9.004;2023-05-02T06:36:46;10.50;;;9.50;;
59062;SDS011;44851;45.648;9.004;2023-05-02T06:39:12;10.20;;;9.30;;
59062;SDS011;44851;45.648;9.004;2023-05-02T06:41:37;10.53;;;9.37;;
59062;SDS011;44851;45.648;9.004;2023-05-02T06:44:03;11.40;;;10.30;;
59062;SDS011;44851;45.648;9.004;2023-05-02T06:46:28;10.40;;;9.43;;
59062;SDS011;44851;45.648;9.004;2023-05-02T06:48:55;10.70;;;9.80;;
59062;SDS011;44851;45.648;9.004;2023-05-02T06:51:20;9.87;;;8.97;;
59062;SDS011;44851;45.648;9.004;2023-05-02T06:53:46;9.37;;;8.57;;
59062;SDS011;44851;45.648;9.004;2023-05-02T06:56:12;8.60;;;7.90;;
59062;SDS011;44851;45.648;9.004;2023-05-02T06:58:37;9.43;;;8.63;;
59062;SDS011;44851;45.648;9.004;2023-05-02T07:01:03;9.17;;;8.43;;
59062;SDS011;44851;45.648;9.004;2023-05-02T07:03:28;8.67;;;7.87;;
59062;SDS011;44851;45.648;9.004;2023-05-02T07:05:53;9.07;;;8.30;;
59062;SDS011;44851;45.648;9.004;2023-05-02T07:08:19;8.80;;;8.00;;
59062;SDS011;44851;45.648;9.004;2023-05-02T07:10:46;8.43;;;7.73;;
59062;SDS011;44851;45.648;9.004;2023-05-02T07:13:12;8.77;;;7.97;;
59062;SDS011;44851;45.648;9.004;2023-05-02T07:15:37;8.17;;;7.47;;
59062;SDS011;44851;45.648;9.004;2023-05-02T07:18:02;9.43;;;8.53;;
59062;SDS011;44851;45.648;9.004;2023-05-02T07:20:28;8.10;;;7.30;;
59062;SDS011;44851;45.648;9.004;2023-05-02T07:22:53;7.63;;;6.93;;
59062;SDS011;44851;45.648;9.004;2023-05-02T07:25:19;7.80;;;7.10;;
59062;SDS011;44851;45.648;9.004;2023-05-02T07:27:45;7.80;;;7.00;;
59062;SDS011;44851;45.648;9.004;2023-05-02T07:30:10;6.73;;;6.23;;
59062;SDS011;44851;45.648;9.004;2023-05-02T07:32:36;6.03;;;5.53;;
59062;SDS011;44851;45.648;9.004;2023-05-02T07:35:02;5.90;;;5.20;;
59062;SDS011;44851;45.648;9.004;2023-05-02T07:37:32;5.90;;;5.40;;
59062;SDS011;44851;45.648;9.004;2023-05-02T07:39:59;5.57;;;5.07;;
59062;SDS011;44851;45.648;9.004;2023-05-02T07:42:30;5.63;;;5.13;;
59062;SDS011;44851;45.648;9.004;2023-05-02T07:44:57;6.20;;;5.60;;
59062;SDS011;44851;45.648;9.004;2023-05-02T07:47:22;4.80;;;4.40;;
59062;SDS011;44851;45.648;9.004;2023-05-02T07:49:51;4.73;;;4.20;;
59062;SDS011;44851;45.648;9.004;2023-05-02T07:52:18;3.10;;;2.80;;
59062;SDS011;44851;45.648;9.004;2023-05-02T07:54:43;3.93;;;3.20;;
59062;SDS011;44851;45.648;9.004;2023-05-02T07:57:10;3.67;;;3.17;;
59062;SDS011;44851;45.648;9.004;2023-05-02T07:59:36;3.50;;;3.07;;
59062;SDS011;44851;45.648;9.004;2023-05-02T08:02:02;3.10;;;2.50;;
59062;SDS011;44851;45.648;9.004;2023-05-02T08:04:27;3.70;;;2.60;;
59062;SDS011;44851;45.648;9.004;2023-05-02T08:06:53;2.40;;;2.20;;
59062;SDS011;44851;45.648;9.004;2023-05-02T08:09:19;2.80;;;2.60;;
59062;SDS011;44851;45.648;9.004;2023-05-02T08:11:44;2.07;;;1.90;;
59062;SDS011;44851;45.648;9.004;2023-05-02T08:14:10;2.83;;;2.33;;
59062;SDS011;44851;45.648;9.004;2023-05-02T08:16:35;2.93;;;2.63;;
59062;SDS011;44851;45.648;9.004;2023-05-02T08:19:01;2.70;;;2.47;;
59062;SDS011;44851;45.648;9.004;2023-05-02T08:21:26;2.50;;;2.27;;
59062;SDS011;44851;45.648;9.004;2023-05-02T08:23:52;2.67;;;2.47;;
59062;SDS011;44851;45.648;9.004;2023-05-02T08:26:22;2.40;;;2.20;;
59062;SDS011;44851;45.648;9.004;2023-05-02T08:28:48;2.77;;;2.57;;
59062;SDS011;44851;45.648;9.004;2023-05-02T08:31:17;2.60;;;2.40;;
59062;SDS011;44851;45.648;9.004;2023-05-02T08:33:43;2.63;;;2.43;;
59062;SDS011;44851;45.648;9.004;2023-05-02T08:36:10;3.13;;;2.40;;
59062;SDS011;44851;45.648;9.004;2023-05-02T08:38:42;3.60;;;2.50;;
59062;SDS011;44851;45.648;9.004;2023-05-02T08:41:09;2.30;;;2.20;;
59062;SDS011;44851;45.648;9.004;2023-05-02T08:43:36;2.73;;;2.53;;
59062;SDS011;44851;45.648;9.004;2023-05-02T08:46:03;2.70;;;2.40;;
59062;SDS011;44851;45.648;9.004;2023-05-02T08:48:31;2.57;;;2.37;;
59062;SDS011;44851;45.648;9.004;2023-05-02T08:51:00;2.50;;;2.30;;
59062;SDS011;44851;45.648;9.004;2023-05-02T08:53:28;2.70;;;2.40;;
59062;SDS011;44851;45.648;9.004;2023-05-02T08:55:56;3.23;;;2.20;;
59062;SDS011;44851;45.648;9.004;2023-05-02T08:58:23;2.70;;;2.40;;
59062;SDS011;44851;45.648;9.004;2023-05-02T09:00:49;2.30;;;2.10;;
59062;SDS011;44851;45.648;9.004;2023-05-02T09:05:53;2.50;;;2.30;;
59062;SDS011;44851;45.648;9.004;2023-05-02T09:08:41;4.53;;;2.33;;
59062;SDS011;44851;45.648;9.004;2023-05-02T09:11:08;3.93;;;1.80;;
59062;SDS011;44851;45.648;9.004;2023-05-02T09:16:03;3.03;;;2.30;;
59062;SDS011;44851;45.648;9.004;2023-05-02T09:18:51;2.10;;;1.77;;
59062;SDS011;44851;45.648;9.004;2023-05-02T09:21:18;1.97;;;1.80;;
59062;SDS011;44851;45.648;9.004;2023-05-02T09:23:45;2.30;;;2.10;;
59062;SDS011;44851;45.648;9.004;2023-05-02T09:26:12;2.70;;;1.90;;
59062;SDS011;44851;45.648;9.004;2023-05-02T09:28:41;2.20;;;2.00;;
59062;SDS011;44851;45.648;9.004;2023-05-02T09:31:08;3.40;;;2.70;;
59062;SDS011;44851;45.648;9.004;2023-05-02T09:33:35;2.63;;;2.43;;
59062;SDS011;44851;45.648;9.004;2023-05-02T09:36:02;3.23;;;2.90;;
59062;SDS011;44851;45.648;9.004;2023-05-02T09:38:28;2.43;;;2.23;;
59062;SDS011;44851;45.648;9.004;2023-05-02T09:40:53;3.30;;;2.03;;
59062;SDS011;44851;45.648;9.004;2023-05-02T09:43:20;2.30;;;2.03;;
59062;SDS011;44851;45.648;9.004;2023-05-02T09:45:55;3.57;;;2.30;;
59062;SDS011;44851;45.648;9.004;2023-05-02T09:48:21;2.43;;;1.93;;
59062;SDS011;44851;45.648;9.004;2023-05-02T09:50:47;3.80;;;2.00;;
59062;SDS011;44851;45.648;9.004;2023-05-02T09:53:12;2.57;;;2.10;;
59062;SDS011;44851;45.648;9.004;2023-05-02T09:55:38;2.30;;;2.10;;
59062;SDS011;44851;45.648;9.004;2023-05-02T09:58:03;2.23;;;2.10;;
59062;SDS011;44851;45.648;9.004;2023-05-02T10:03:07;5.57;;;2.27;;
59062;SDS011;44851;45.648;9.004;2023-05-02T10:05:36;2.13;;;2.03;;
59062;SDS011;44851;45.648;9.004;2023-05-02T10:08:06;2.67;;;2.47;;
59062;SDS011;44851;45.648;9.004;2023-05-02T10:10:37;3.07;;;2.40;;
59062;SDS011;44851;45.648;9.004;2023-05-02T10:13:05;2.30;;;2.10;;
59062;SDS011;44851;45.648;9.004;2023-05-02T10:15:32;1.90;;;1.70;;
59062;SDS011;44851;45.648;9.004;2023-05-02T10:17:59;2.70;;;1.80;;
59062;SDS011;44851;45.648;9.004;2023-05-02T10:20:34;2.27;;;1.90;;
59062;SDS011;44851;45.648;9.004;2023-05-02T10:23:01;2.00;;;1.80;;
59062;SDS011;44851;45.648;9.004;2023-05-02T10:25:27;1.83;;;1.73;;
59062;SDS011;44851;45.648;9.004;2023-05-02T10:27:55;1.63;;;1.53;;
59062;SDS011;44851;45.648;9.004;2023-05-02T10:30:22;1.70;;;1.60;;
59062;SDS011;44851;45.648;9.004;2023-05-02T10:32:48;1.53;;;1.40;;
59062;SDS011;44851;45.648;9.004;2023-05-02T10:35:17;1.83;;;1.27;;
59062;SDS011;44851;45.648;9.004;2023-05-02T10:37:43;2.00;;;1.57;;
59062;SDS011;44851;45.648;9.004;2023-05-02T10:40:10;1.90;;;1.80;;
59062;SDS011;44851;45.648;9.004;2023-05-02T10:42:37;1.63;;;1.53;;
59062;SDS011;44851;45.648;9.004;2023-05-02T10:45:51;1.50;;;1.40;;
59062;SDS011;44851;45.648;9.004;2023-05-02T10:50:41;2.30;;;1.40;;
59062;SDS011;44851;45.648;9.004;2023-05-02T10:53:27;1.47;;;1.37;;
59062;SDS011;44851;45.648;9.004;2023-05-02T10:58:51;1.43;;;1.33;;
59062;SDS011;44851;45.648;9.004;2023-05-02T11:04:07;2.00;;;1.90;;
59062;SDS011;44851;45.648;9.004;2023-05-02T11:06:35;2.33;;;2.13;;
59062;SDS011;44851;45.648;9.004;2023-05-02T11:11:50;2.10;;;2.00;;
59062;SDS011;44851;45.648;9.004;2023-05-02T11:19:26;2.40;;;2.20;;
59062;SDS011;44851;45.648;9.004;2023-05-02T11:21:52;2.30;;;2.07;;
59062;SDS011;44851;45.648;9.004;2023-05-02T11:24:45;1.57;;;1.47;;
59062;SDS011;44851;45.648;9.004;2023-05-02T11:33:18;3.03;;;1.93;;
59062;SDS011;44851;45.648;9.004;2023-05-02T11:40:30;1.20;;;1.10;;
59062;SDS011;44851;45.648;9.004;2023-05-02T11:42:56;1.50;;;1.40;;
59062;SDS011;44851;45.648;9.004;2023-05-02T11:45:34;1.40;;;1.00;;
59062;SDS011;44851;45.648;9.004;2023-05-02T11:48:05;1.50;;;1.40;;
59062;SDS011;44851;45.648;9.004;2023-05-02T11:50:43;2.23;;;1.40;;
59062;SDS011;44851;45.648;9.004;2023-05-02T11:53:23;1.37;;;1.27;;
59062;SDS011;44851;45.648;9.004;2023-05-02T11:58:33;1.47;;;1.20;;
59062;SDS011;44851;45.648;9.004;2023-05-02T12:01:10;1.70;;;1.60;;
59062;SDS011;44851;45.648;9.004;2023-05-02T12:03:39;1.50;;;1.20;;
59062;SDS011;44851;45.648;9.004;2023-05-02T12:06:12;1.63;;;1.53;;
59062;SDS011;44851;45.648;9.004;2023-05-02T12:08:43;1.77;;;1.40;;
59062;SDS011;44851;45.648;9.004;2023-05-02T12:11:11;1.40;;;1.30;;
59062;SDS011;44851;45.648;9.004;2023-05-02T12:13:43;1.63;;;1.30;;
59062;SDS011;44851;45.648;9.004;2023-05-02T12:16:10;1.63;;;1.50;;
59062;SDS011;44851;45.648;9.004;2023-05-02T12:18:36;1.50;;;1.40;;
59062;SDS011;44851;45.648;9.004;2023-05-02T12:21:02;2.43;;;2.07;;
59062;SDS011;44851;45.648;9.004;2023-05-02T12:23:27;2.40;;;2.20;;
59062;SDS011;44851;45.648;9.004;2023-05-02T12:25:53;1.90;;;1.70;;
59062;SDS011;44851;45.648;9.004;2023-05-02T12:28:18;2.10;;;1.90;;
59062;SDS011;44851;45.648;9.004;2023-05-02T12:30:46;1.40;;;1.30;;
59062;SDS011;44851;45.648;9.004;2023-05-02T12:33:13;1.50;;;1.40;;
59062;SDS011;44851;45.648;9.004;2023-05-02T12:35:40;1.60;;;1.50;;
59062;SDS011;44851;45.648;9.004;2023-05-02T12:38:10;1.10;;;1.10;;
59062;SDS011;44851;45.648;9.004;2023-05-02T12:40:37;1.77;;;1.63;;
59062;SDS011;44851;45.648;9.004;2023-05-02T12:43:04;1.50;;;1.40;;
59062;SDS011;44851;45.648;9.004;2023-05-02T12:45:32;1.90;;;1.50;;
59062;SDS011;44851;45.648;9.004;2023-05-02T12:50:52;1.47;;;1.37;;
59062;SDS011;44851;45.648;9.004;2023-05-02T12:56:05;1.40;;;1.30;;
59062;SDS011;44851;45.648;9.004;2023-05-02T12:58:38;3.37;;;1.43;;
59062;SDS011;44851;45.648;9.004;2023-05-02T13:01:06;2.13;;;1.20;;
59062;SDS011;44851;45.648;9.004;2023-05-02T13:03:32;1.57;;;1.47;;
59062;SDS011;44851;45.648;9.004;2023-05-02T13:05:57;2.13;;;1.93;;
59062;SDS011;44851;45.648;9.004;2023-05-02T13:08:22;2.40;;;1.50;;
59062;SDS011;44851;45.648;9.004;2023-05-02T13:10:48;1.73;;;1.53;;
59062;SDS011;44851;45.648;9.004;2023-05-02T13:13:13;1.43;;;1.33;;
59062;SDS011;44851;45.648;9.004;2023-05-02T13:15:39;1.33;;;1.23;;
59062;SDS011;44851;45.648;9.004;2023-05-02T13:18:05;1.63;;;1.53;;
59062;SDS011;44851;45.648;9.004;2023-05-02T13:20:31;1.60;;;1.50;;
59062;SDS011;44851;45.648;9.004;2023-05-02T13:22:57;1.50;;;1.40;;
59062;SDS011;44851;45.648;9.004;2023-05-02T13:25:23;1.20;;;1.10;;
59062;SDS011;44851;45.648;9.004;2023-05-02T13:27:48;1.27;;;1.17;;
59062;SDS011;44851;45.648;9.004;2023-05-02T13:30:14;2.13;;;1.60;;
59062;SDS011;44851;45.648;9.004;2023-05-02T13:32:39;1.63;;;1.53;;
59062;SDS011;44851;45.648;9.004;2023-05-02T13:35:05;1.30;;;1.20;;
59062;SDS011;44851;45.648;9.004;2023-05-02T13:37:31;1.73;;;1.20;;
59062;SDS011;44851;45.648;9.004;2023-05-02T13:39:56;1.87;;;1.20;;
59062;SDS011;44851;45.648;9.004;2023-05-02T13:42:22;1.47;;;1.37;;
59062;SDS011;44851;45.648;9.004;2023-05-02T13:44:47;1.40;;;1.30;;
59062;SDS011;44851;45.648;9.004;2023-05-02T13:47:13;1.67;;;1.30;;
59062;SDS011;44851;45.648;9.004;2023-05-02T13:49:38;1.57;;;1.47;;
59062;SDS011;44851;45.648;9.004;2023-05-02T13:52:04;1.37;;;1.27;;
59062;SDS011;44851;45.648;9.004;2023-05-02T13:54:29;1.80;;;1.20;;
59062;SDS011;44851;45.648;9.004;2023-05-02T13:56:55;1.40;;;1.30;;
59062;SDS011;44851;45.648;9.004;2023-05-02T13:59:20;1.93;;;1.50;;
59062;SDS011;44851;45.648;9.004;2023-05-02T14:01:46;2.17;;;2.00;;
59062;SDS011;44851;45.648;9.004;2023-05-02T14:04:11;2.00;;;1.47;;
59062;SDS011;44851;45.648;9.004;2023-05-02T14:06:37;2.47;;;1.70;;
59062;SDS011;44851;45.648;9.004;2023-05-02T14:09:02;2.30;;;1.80;;
59062;SDS011;44851;45.648;9.004;2023-05-02T14:11:28;1.67;;;1.57;;
59062;SDS011;44851;45.648;9.004;2023-05-02T14:13:53;2.20;;;2.00;;
59062;SDS011;44851;45.648;9.004;2023-05-02T14:16:21;2.27;;;1.73;;
59062;SDS011;44851;45.648;9.004;2023-05-02T14:18:47;1.83;;;1.73;;
59062;SDS011;44851;45.648;9.004;2023-05-02T14:21:14;3.20;;;1.70;;
59062;SDS011;44851;45.648;9.004;2023-05-02T14:23:40;2.20;;;2.00;;
59062;SDS011;44851;45.648;9.004;2023-05-02T14:26:05;3.40;;;3.10;;
59062;SDS011;44851;45.648;9.004;2023-05-02T14:28:31;2.40;;;1.70;;
59062;SDS011;44851;45.648;9.004;2023-05-02T14:30:56;2.53;;;1.47;;
59062;SDS011;44851;45.648;9.004;2023-05-02T14:33:22;1.50;;;1.40;;
59062;SDS011;44851;45.648;9.004;2023-05-02T14:35:47;1.53;;;1.43;;
59062;SDS011;44851;45.648;9.004;2023-05-02T14:38:13;2.10;;;2.00;;
59062;SDS011;44851;45.648;9.004;2023-05-02T14:40:38;1.80;;;1.70;;
59062;SDS011;44851;45.648;9.004;2023-05-02T14:43:04;1.90;;;1.70;;
59062;SDS011;44851;45.648;9.004;2023-05-02T14:45:30;1.93;;;1.80;;
59062;SDS011;44851;45.648;9.004;2023-05-02T14:47:55;1.90;;;1.80;;
59062;SDS011;44851;45.648;9.004;2023-05-02T14:50:22;1.93;;;1.83;;
59062;SDS011;44851;45.648;9.004;2023-05-02T14:52:48;2.63;;;1.67;;
59062;SDS011;44851;45.648;9.004;2023-05-02T14:55:14;1.80;;;1.70;;
59062;SDS011;44851;45.648;9.004;2023-05-02T14:57:40;2.93;;;1.77;;
59062;SDS011;44851;45.648;9.004;2023-05-02T15:00:06;2.67;;;1.83;;
59062;SDS011;44851;45.648;9.004;2023-05-02T15:02:32;1.90;;;1.80;;
59062;SDS011;44851;45.648;9.004;2023-05-02T15:04:58;2.70;;;2.03;;
59062;SDS011;44851;45.648;9.004;2023-05-02T15:07:24;3.30;;;2.33;;
59062;SDS011;44851;45.648;9.004;2023-05-02T15:09:49;2.60;;;2.17;;
59062;SDS011;44851;45.648;9.004;2023-05-02T15:12:15;1.70;;;1.60;;
59062;SDS011;44851;45.648;9.004;2023-05-02T15:14:40;2.13;;;2.03;;
59062;SDS011;44851;45.648;9.004;2023-05-02T15:17:06;2.57;;;2.37;;
59062;SDS011;44851;45.648;9.004;2023-05-02T15:19:31;2.87;;;2.60;;
59062;SDS011;44851;45.648;9.004;2023-05-02T15:21:57;3.00;;;2.70;;
59062;SDS011;44851;45.648;9.004;2023-05-02T15:24:22;2.80;;;2.60;;
59062;SDS011;44851;45.648;9.004;2023-05-02T15:26:51;2.97;;;2.73;;
59062;SDS011;44851;45.648;9.004;2023-05-02T15:29:16;3.17;;;2.97;;
59062;SDS011;44851;45.648;9.004;2023-05-02T15:31:42;3.70;;;3.40;;
59062;SDS011;44851;45.648;9.004;2023-05-02T15:34:08;3.30;;;3.10;;
59062;SDS011;44851;45.648;9.004;2023-05-02T15:36:33;4.37;;;2.87;;
59062;SDS011;44851;45.648;9.004;2023-05-02T15:39:02;3.83;;;3.53;;
59062;SDS011;44851;45.648;9.004;2023-05-02T15:41:28;4.63;;;4.23;;
59062;SDS011;44851;45.648;9.004;2023-05-02T15:43:54;4.87;;;4.47;;
59062;SDS011;44851;45.648;9.004;2023-05-02T15:46:20;5.10;;;4.47;;
59062;SDS011;44851;45.648;9.004;2023-05-02T15:48:46;4.77;;;4.37;;